Time;durP1;ratioP1;P1;durP2;ratioP2;P2;SDS_P1;SDS_P2;PMS_P1;PMS_P2;Temp;Humidity;BMP_temperature;BMP_pressure;BME280_temperature;BME280_humidity;BME280_pressure;Samples;Min_cycle;Max_cycle;Signal;HPM_P1;HPM_P2
2023/10/15 00:02:07;;;;;;;6.93;1.35;;;10.70;96.70;;;;;;5018427;28;20029;-64
2023/10/15 00:04:33;;;;;;;5.00;1.30;;;10.80;96.70;;;;;;5019769;28;20029;-64
2023/10/15 00:07:05;;;;;;;8.05;1.40;;;10.80;96.40;;;;;;5018580;28;20033;-64
2023/10/15 00:09:32;;;;;;;8.88;1.45;;;10.70;96.60;;;;;;5015164;28;20061;-64
2023/10/15 00:11:59;;;;;;;7.00;1.70;;;10.70;96.40;;;;;;5017288;28;20029;-64
2023/10/15 00:14:25;;;;;;;5.85;1.63;;;10.60;96.70;;;;;;5019824;28;20040;-64
2023/10/15 00:16:51;;;;;;;9.57;2.25;;;10.60;96.70;;;;;;5017580;28;20029;-64
2023/10/15 00:19:17;;;;;;;7.68;1.27;;;10.60;96.70;;;;;;5020334;28;20575;-64
2023/10/15 00:21:42;;;;;;;4.25;1.48;;;10.50;96.80;;;;;;5017758;28;20409;-64
2023/10/15 00:24:10;;;;;;;7.43;1.42;;;10.60;96.90;;;;;;5019226;28;20034;-64
2023/10/15 00:26:38;;;;;;;4.35;1.35;;;10.60;97.00;;;;;;5019298;28;20026;-64
2023/10/15 00:29:08;;;;;;;6.60;1.45;;;10.60;96.60;;;;;;5019013;28;20044;-64
2023/10/15 00:31:34;;;;;;;8.10;1.65;;;10.60;96.90;;;;;;5018191;28;20037;-64
2023/10/15 00:34:00;;;;;;;8.70;1.50;;;10.60;96.90;;;;;;5015103;28;20034;-64
2023/10/15 00:36:27;;;;;;;8.57;1.33;;;10.70;96.80;;;;;;5022498;28;20045;-64
2023/10/15 00:38:53;;;;;;;9.63;1.33;;;10.60;96.70;;;;;;5014347;28;20439;-65
2023/10/15 00:41:19;;;;;;;9.88;1.75;;;10.60;96.70;;;;;;5019378;28;20029;-64
2023/10/15 00:43:54;;;;;;;11.07;1.60;;;10.60;96.50;;;;;;5013794;28;20083;-64
2023/10/15 00:46:22;;;;;;;6.35;0.93;;;10.50;96.70;;;;;;5019218;28;20404;-64
2023/10/15 00:48:49;;;;;;;5.38;1.35;;;10.50;96.90;;;;;;5013984;28;20486;-64
2023/10/15 00:51:20;;;;;;;4.65;1.15;;;10.50;96.80;;;;;;5020644;28;20501;-64
2023/10/15 00:53:58;;;;;;;5.15;1.00;;;10.50;96.90;;;;;;5013791;28;20550;-64
2023/10/15 00:56:35;;;;;;;2.75;1.30;;;10.40;97.00;;;;;;5016055;28;20133;-64
2023/10/15 01:01:40;;;;;;;7.15;1.17;;;10.50;96.90;;;;;;5021766;28;20060;-64
2023/10/15 01:04:15;;;;;;;10.25;1.70;;;10.50;96.80;;;;;;5016372;28;20033;-64
2023/10/15 01:06:49;;;;;;;6.20;1.23;;;10.50;96.70;;;;;;5015907;28;20035;-64
2023/10/15 01:09:27;;;;;;;6.15;1.75;;;10.50;96.60;;;;;;5013668;28;20028;-64
2023/10/15 01:11:57;;;;;;;7.57;1.23;;;10.50;96.50;;;;;;5018631;28;20037;-64
2023/10/15 01:14:33;;;;;;;6.93;1.10;;;10.50;96.60;;;;;;5019286;28;20053;-65
2023/10/15 01:17:01;;;;;;;6.28;0.93;;;10.50;96.50;;;;;;5022693;28;20022;-65
2023/10/15 01:19:31;;;;;;;6.28;1.25;;;10.40;96.60;;;;;;5019168;28;20041;-64
2023/10/15 01:22:02;;;;;;;8.27;1.58;;;10.50;96.90;;;;;;5022058;28;20494;-64
2023/10/15 01:24:28;;;;;;;7.18;1.20;;;10.40;96.70;;;;;;5018762;28;20029;-64
2023/10/15 01:27:08;;;;;;;8.25;1.10;;;10.30;96.70;;;;;;5020618;28;20045;-64
2023/10/15 01:29:36;;;;;;;11.73;1.42;;;10.30;96.70;;;;;;5022061;28;20037;-65
2023/10/15 01:32:03;;;;;;;6.00;1.40;;;10.40;96.80;;;;;;5024453;28;20280;-64
2023/10/15 01:34:36;;;;;;;6.38;1.17;;;10.40;96.60;;;;;;5020241;28;20675;-65
2023/10/15 01:37:02;;;;;;;6.45;1.40;;;10.30;97.10;;;;;;5020844;28;20040;-64
2023/10/15 01:39:38;;;;;;;5.93;1.20;;;10.30;96.80;;;;;;5019133;28;20021;-64
2023/10/15 01:42:06;;;;;;;8.77;1.20;;;10.20;96.70;;;;;;5024801;28;20049;-65
2023/10/15 01:44:38;;;;;;;16.90;2.28;;;10.10;96.90;;;;;;5020346;28;20044;-64
2023/10/15 01:49:33;;;;;;;4.13;0.93;;;10.10;96.80;;;;;;5018965;28;20053;-64
2023/10/15 01:52:09;;;;;;;6.75;1.55;;;10.20;96.60;;;;;;5022149;28;20379;-64
2023/10/15 01:54:45;;;;;;;8.07;1.27;;;10.20;96.70;;;;;;5021722;28;20075;-64
2023/10/15 01:57:15;;;;;;;4.82;1.35;;;10.20;96.60;;;;;;5021690;28;20043;-64
2023/10/15 01:59:48;;;;;;;6.53;1.45;;;10.20;96.70;;;;;;5019003;28;20083;-64
2023/10/15 02:02:18;;;;;;;7.38;1.05;;;10.20;96.60;;;;;;5007731;28;20029;-64
2023/10/15 02:04:47;;;;;;;7.20;1.35;;;10.20;96.90;;;;;;5019580;28;20056;-64
2023/10/15 02:07:17;;;;;;;6.78;1.20;;;10.20;96.70;;;;;;5021356;28;20115;-64
2023/10/15 02:09:44;;;;;;;5.00;1.73;;;10.20;96.60;;;;;;5019688;28;20080;-64
2023/10/15 02:12:18;;;;;;;8.63;1.00;;;10.20;96.60;;;;;;5020930;28;20025;-64
2023/10/15 02:14:47;;;;;;;9.13;1.30;;;10.20;96.60;;;;;;5019400;28;20112;-64
2023/10/15 02:17:19;;;;;;;13.73;1.42;;;10.10;96.50;;;;;;5021347;28;20327;-64
2023/10/15 02:19:47;;;;;;;10.90;1.23;;;10.00;96.80;;;;;;5018166;28;20075;-64
2023/10/15 02:22:13;;;;;;;10.18;1.23;;;10.10;97.00;;;;;;5020738;28;20072;-64
2023/10/15 02:24:49;;;;;;;4.88;1.23;;;10.10;96.90;;;;;;5018472;28;20075;-64
2023/10/15 02:27:23;;;;;;;;;;;10.10;96.80;;;;;;5020328;28;20846;-64
2023/10/15 02:29:49;;;;;;;5.85;1.33;;;10.10;96.80;;;;;;5017266;28;19913;-65
2023/10/15 02:32:30;;;;;;;6.32;1.25;;;10.10;97.00;;;;;;5022405;28;20120;-64
2023/10/15 02:35:05;;;;;;;4.93;1.30;;;10.10;97.00;;;;;;5016034;28;20026;-64
2023/10/15 02:37:31;;;;;;;4.50;1.08;;;10.00;96.90;;;;;;5020565;28;20520;-64
2023/10/15 02:39:58;;;;;;;10.35;0.90;;;10.10;97.10;;;;;;5016571;28;20034;-64
2023/10/15 02:42:30;;;;;;;5.38;0.98;;;10.10;96.70;;;;;;5021296;28;20136;-64
2023/10/15 02:44:58;;;;;;;10.60;1.23;;;10.10;96.90;;;;;;5015192;28;20497;-64
2023/10/15 02:47:42;;;;;;;5.28;1.33;;;10.10;96.90;;;;;;5024445;28;20107;-64
2023/10/15 02:50:17;;;;;;;6.45;1.30;;;10.10;96.90;;;;;;5018153;28;20397;-64
2023/10/15 02:52:43;;;;;;;3.42;1.00;;;10.10;97.10;;;;;;5018660;28;20029;-64
2023/10/15 02:55:14;;;;;;;8.18;2.00;;;10.10;96.90;;;;;;5016367;28;20045;-64
2023/10/15 02:57:44;;;;;;;8.50;1.48;;;10.10;96.90;;;;;;5019057;28;20055;-64
2023/10/15 03:00:13;;;;;;;10.55;1.45;;;10.10;96.90;;;;;;5016522;28;20065;-64
2023/10/15 03:02:43;;;;;;;7.22;1.40;;;10.10;97.00;;;;;;5021086;28;20505;-64
2023/10/15 03:05:13;;;;;;;11.02;2.03;;;10.10;97.20;;;;;;5016005;28;20045;-64
2023/10/15 03:07:43;;;;;;;8.38;1.10;;;10.10;96.90;;;;;;5030802;28;20057;-64
2023/10/15 03:10:10;;;;;;;10.05;1.10;;;10.00;96.90;;;;;;5016331;28;21316;-64
2023/10/15 03:12:43;;;;;;;5.40;1.30;;;10.00;97.10;;;;;;5021786;28;20037;-64
2023/10/15 03:15:16;;;;;;;7.75;1.08;;;9.90;97.00;;;;;;5015985;28;20040;-64
2023/10/15 03:17:43;;;;;;;7.85;1.20;;;9.90;97.40;;;;;;5020438;28;20113;-64
2023/10/15 03:22:44;;;;;;;7.28;0.88;;;9.90;97.20;;;;;;5019157;28;20072;-64
2023/10/15 03:25:16;;;;;;;9.13;1.83;;;9.90;97.30;;;;;;5016184;28;20132;-64
2023/10/15 03:27:46;;;;;;;16.23;2.05;;;9.90;97.40;;;;;;5020645;28;20022;-64
2023/10/15 03:30:13;;;;;;;7.90;1.23;;;9.90;97.40;;;;;;5018332;28;20148;-64
2023/10/15 03:32:44;;;;;;;7.28;1.40;;;9.90;97.20;;;;;;5023314;28;20044;-64
2023/10/15 03:35:27;;;;;;;5.57;0.90;;;9.80;97.30;;;;;;5016975;28;20034;-64
2023/10/15 03:38:00;;;;;;;7.68;1.42;;;9.80;97.30;;;;;;5019747;28;20374;-64
2023/10/15 03:40:44;;;;;;;9.55;1.60;;;9.80;97.10;;;;;;5021316;28;20029;-64
2023/10/15 03:43:20;;;;;;;5.72;1.20;;;9.80;97.10;;;;;;5020678;28;20397;-64
2023/10/15 03:45:53;;;;;;;7.25;1.17;;;9.80;97.20;;;;;;5018023;28;20108;-64
2023/10/15 03:48:30;;;;;;;7.20;1.20;;;9.90;97.30;;;;;;5020031;28;20116;-64
2023/10/15 03:50:58;;;;;;;12.48;1.73;;;9.80;97.30;;;;;;5018061;28;20441;-64
2023/10/15 03:53:28;;;;;;;6.07;1.05;;;9.80;97.30;;;;;;5022035;28;20496;-64
2023/10/15 03:56:01;;;;;;;10.63;1.48;;;9.80;97.40;;;;;;5014339;28;20033;-64
2023/10/15 03:58:33;;;;;;;7.53;1.40;;;9.70;97.30;;;;;;5021056;28;20036;-64
2023/10/15 04:01:22;;;;;;;4.25;1.10;;;9.70;97.40;;;;;;5015464;28;20034;-64
2023/10/15 04:03:47;;;;;;;4.75;1.02;;;9.70;97.30;;;;;;5017276;28;20110;-65
2023/10/15 04:06:17;;;;;;;5.28;1.10;;;9.70;97.20;;;;;;5017123;28;20060;-64
2023/10/15 04:09:26;;;;;;;7.40;1.70;;;9.70;97.30;;;;;;5019162;28;20021;-64
2023/10/15 04:11:42;;;;;;;8.77;1.40;;;9.70;97.30;;;;;;5017519;28;20795;-64
2023/10/15 04:14:26;;;;;;;;;;;9.70;97.30;;;;;;5019177;28;20025;-64
2023/10/15 04:16:52;;;;;;;8.32;1.42;;;9.80;97.40;;;;;;5016514;28;19920;-64
2023/10/15 04:19:18;;;;;;;9.77;1.90;;;9.80;97.20;;;;;;5019891;28;20044;-64
2023/10/15 04:21:45;;;;;;;9.75;1.58;;;9.70;97.20;;;;;;5017016;28;20021;-64
2023/10/15 04:24:14;;;;;;;8.55;1.52;;;9.70;97.40;;;;;;5019343;28;20489;-64
2023/10/15 04:26:42;;;;;;;9.88;1.30;;;9.70;97.40;;;;;;5017577;28;20616;-64
2023/10/15 04:29:18;;;;;;;5.90;1.40;;;9.70;97.40;;;;;;5019383;28;20080;-64
2023/10/15 04:31:46;;;;;;;11.95;1.42;;;9.70;97.40;;;;;;5016826;28;20038;-64
2023/10/15 04:34:18;;;;;;;13.68;1.95;;;9.60;97.30;;;;;;5019372;28;20033;-64
2023/10/15 04:36:48;;;;;;;5.43;1.20;;;9.60;97.50;;;;;;5017257;28;20584;-64
2023/10/15 04:39:15;;;;;;;7.90;1.33;;;9.50;97.30;;;;;;5020134;28;20397;-64
2023/10/15 04:41:41;;;;;;;6.57;1.13;;;9.50;97.60;;;;;;5017080;28;20041;-64
2023/10/15 04:44:20;;;;;;;8.07;1.30;;;9.60;97.70;;;;;;5018779;28;20077;-64
2023/10/15 04:46:46;;;;;;;4.38;1.00;;;9.50;97.70;;;;;;5018474;28;20033;-64
2023/10/15 04:49:15;;;;;;;5.72;1.17;;;9.40;97.60;;;;;;5022555;28;20869;-64
2023/10/15 04:51:44;;;;;;;10.27;1.20;;;9.40;97.60;;;;;;5021582;28;20033;-64
2023/10/15 04:54:10;;;;;;;8.95;1.50;;;9.40;97.60;;;;;;5023266;28;20056;-64
2023/10/15 04:56:37;;;;;;;7.53;1.27;;;9.40;97.70;;;;;;5017737;28;20437;-64
2023/10/15 04:59:04;;;;;;;6.53;1.05;;;9.40;97.70;;;;;;5022284;28;20045;-64
2023/10/15 05:01:33;;;;;;;13.40;1.52;;;9.30;97.80;;;;;;5023964;28;20061;-64
2023/10/15 05:04:00;;;;;;;8.68;1.33;;;9.30;97.80;;;;;;5023451;28;20149;-64
2023/10/15 05:06:26;;;;;;;10.63;2.10;;;9.30;97.90;;;;;;5021036;28;20064;-64
2023/10/15 05:08:53;;;;;;;8.70;1.63;;;9.30;98.00;;;;;;5023654;28;20164;-65
2023/10/15 05:11:21;;;;;;;7.70;1.10;;;9.30;98.10;;;;;;5021526;28;20041;-64
2023/10/15 05:13:51;;;;;;;9.70;1.42;;;9.30;98.00;;;;;;5023565;28;20133;-64
2023/10/15 05:16:17;;;;;;;5.28;1.10;;;9.30;98.00;;;;;;5020376;28;20064;-65
2023/10/15 05:18:43;;;;;;;8.40;1.48;;;9.30;97.90;;;;;;5021618;28;20040;-64
2023/10/15 05:21:10;;;;;;;7.47;1.83;;;9.30;97.90;;;;;;5020484;28;20857;-64
2023/10/15 05:23:37;;;;;;;6.82;1.33;;;9.30;98.00;;;;;;5022060;28;20051;-64
2023/10/15 05:26:03;;;;;;;8.88;1.48;;;9.30;97.90;;;;;;5019362;28;20038;-64
2023/10/15 05:28:29;;;;;;;8.25;1.58;;;9.30;98.00;;;;;;5021858;28;20025;-64
2023/10/15 05:30:57;;;;;;;6.65;1.10;;;9.30;98.10;;;;;;5017765;28;20073;-64
2023/10/15 05:33:24;;;;;;;8.55;1.20;;;9.30;98.00;;;;;;5022332;28;20382;-66
2023/10/15 05:35:50;;;;;;;5.22;1.27;;;9.30;97.90;;;;;;5019036;28;20589;-65
2023/10/15 05:38:16;;;;;;;5.78;1.35;;;9.30;97.80;;;;;;5022244;28;20136;-66
2023/10/15 05:40:44;;;;;;;9.93;2.15;;;9.30;97.80;;;;;;5019924;28;20029;-65
2023/10/15 05:43:10;;;;;;;7.35;1.38;;;9.30;97.80;;;;;;5022223;28;20079;-64
2023/10/15 05:45:35;;;;;;;9.20;1.42;;;9.40;98.00;;;;;;5021058;28;20497;-64
2023/10/15 05:48:02;;;;;;;4.50;0.93;;;9.30;98.10;;;;;;5021138;28;20065;-64
2023/10/15 05:50:27;;;;;;;10.35;1.30;;;9.30;97.70;;;;;;5022255;28;20091;-64
2023/10/15 05:52:53;;;;;;;8.85;1.65;;;9.30;97.90;;;;;;5019470;28;20041;-64
2023/10/15 05:55:19;;;;;;;6.70;1.20;;;9.30;98.00;;;;;;5022823;28;20037;-64
2023/10/15 05:57:46;;;;;;;4.55;1.27;;;9.30;97.90;;;;;;5019248;28;20436;-64
2023/10/15 06:00:19;;;;;;;9.82;1.70;;;9.30;97.90;;;;;;5022897;28;20121;-64
2023/10/15 06:02:45;;;;;;;3.95;1.30;;;9.30;98.00;;;;;;5019694;28;20029;-64
2023/10/15 06:05:13;;;;;;;8.93;1.20;;;9.30;98.00;;;;;;5022261;28;20064;-64
2023/10/15 06:07:43;;;;;;;8.60;1.52;;;9.30;98.20;;;;;;5020124;28;20029;-64
2023/10/15 06:10:11;;;;;;;5.38;1.00;;;9.30;98.30;;;;;;5021816;28;20060;-64
2023/10/15 06:12:38;;;;;;;6.80;1.27;;;9.30;98.00;;;;;;5019761;28;20033;-62
2023/10/15 06:15:04;;;;;;;6.65;1.13;;;9.20;98.40;;;;;;5021404;28;20089;-62
2023/10/15 06:17:30;;;;;;;12.02;1.58;;;9.20;98.70;;;;;;5019687;28;20568;-62
2023/10/15 06:19:56;;;;;;;5.72;1.00;;;9.10;98.50;;;;;;5021782;28;20116;-62
2023/10/15 06:22:22;;;;;;;9.30;1.15;;;9.10;98.70;;;;;;5019855;28;20116;-64
2023/10/15 06:24:48;;;;;;;7.20;1.30;;;9.10;98.70;;;;;;5021493;28;20110;-62
2023/10/15 06:27:13;;;;;;;6.53;1.25;;;9.10;98.80;;;;;;5018292;28;20033;-62
2023/10/15 06:29:39;;;;;;;6.72;1.85;;;9.20;98.80;;;;;;5023388;28;20044;-62
2023/10/15 06:32:05;;;;;;;8.27;2.53;;;9.10;98.40;;;;;;5018902;28;20056;-62
2023/10/15 06:34:32;;;;;;;9.75;3.53;;;9.30;98.90;;;;;;5021225;28;20034;-64
2023/10/15 06:36:58;;;;;;;8.45;7.55;;;9.30;98.90;;;;;;5017139;28;20038;-64
2023/10/15 06:39:24;;;;;;;12.80;4.55;;;9.40;98.60;;;;;;5021440;28;20021;-62
2023/10/15 06:41:49;;;;;;;9.32;3.70;;;9.40;98.70;;;;;;5017986;28;20034;-62
2023/10/15 06:44:19;;;;;;;5.72;2.50;;;9.50;98.50;;;;;;5019485;28;20029;-62
2023/10/15 06:46:45;;;;;;;10.88;3.28;;;9.50;98.40;;;;;;5018241;28;20042;-62
2023/10/15 06:49:10;;;;;;;72.53;19.92;;;9.60;98.60;;;;;;5020669;28;20033;-62
2023/10/15 06:51:39;;;;;;;12.38;3.63;;;9.60;98.40;;;;;;5019517;28;20056;-62
2023/10/15 06:54:05;;;;;;;4.00;1.60;;;9.60;98.30;;;;;;5019167;28;20038;-62
2023/10/15 06:56:31;;;;;;;9.15;1.65;;;9.60;98.20;;;;;;5020249;28;20021;-62
2023/10/15 06:58:57;;;;;;;8.20;1.52;;;9.70;98.40;;;;;;5017311;28;20040;-62
2023/10/15 07:01:26;;;;;;;5.97;1.38;;;9.80;98.50;;;;;;5016236;28;20075;-64
2023/10/15 07:03:52;;;;;;;7.47;1.38;;;9.90;98.20;;;;;;5018309;28;20030;-64
2023/10/15 07:06:19;;;;;;;5.63;1.50;;;9.90;98.20;;;;;;5024249;28;20095;-64
2023/10/15 07:08:45;;;;;;;7.90;2.13;;;9.90;98.10;;;;;;5017950;28;20094;-64
2023/10/15 07:11:11;;;;;;;9.07;1.42;;;9.90;98.10;;;;;;5021144;28;20033;-62
2023/10/15 07:13:36;;;;;;;6.53;1.52;;;10.00;98.20;;;;;;5005107;28;20029;-64
2023/10/15 07:16:02;;;;;;;8.07;1.95;;;10.10;97.90;;;;;;5022702;28;20759;-62
2023/10/15 07:18:28;;;;;;;5.95;1.40;;;10.10;97.70;;;;;;5018797;28;20087;-62
2023/10/15 07:20:55;;;;;;;6.20;1.60;;;10.10;98.00;;;;;;5019367;28;20645;-62
2023/10/15 07:23:21;;;;;;;8.27;1.73;;;10.20;97.60;;;;;;5018511;28;20030;-64
2023/10/15 07:25:46;;;;;;;7.90;2.42;;;10.20;97.20;;;;;;5020810;28;20025;-62
2023/10/15 07:28:12;;;;;;;3.60;1.23;;;10.20;97.60;;;;;;5018208;28;20535;-63
2023/10/15 07:30:38;;;;;;;8.18;1.17;;;10.30;97.00;;;;;;5021749;28;20029;-64
2023/10/15 07:33:04;;;;;;;6.05;2.08;;;10.40;97.40;;;;;;5016815;28;20113;-64
2023/10/15 07:35:30;;;;;;;5.30;1.25;;;10.50;97.30;;;;;;5022111;28;20036;-64
2023/10/15 07:37:57;;;;;;;4.07;0.88;;;10.40;96.80;;;;;;5018300;28;20025;-64
2023/10/15 07:40:26;;;;;;;4.55;1.20;;;10.40;96.80;;;;;;5022922;28;20021;-64
2023/10/15 07:42:59;;;;;;;5.35;1.13;;;10.40;96.90;;;;;;5014878;28;20525;-64
2023/10/15 07:45:28;;;;;;;4.00;0.95;;;10.60;97.30;;;;;;5022515;28;20029;-64
2023/10/15 07:47:56;;;;;;;3.90;0.80;;;10.60;96.70;;;;;;5015263;28;20049;-65
2023/10/15 07:50:25;;;;;;;8.25;1.15;;;10.70;96.50;;;;;;5022123;28;20037;-64
2023/10/15 07:52:51;;;;;;;6.95;0.88;;;10.80;96.80;;;;;;5015698;28;20044;-64
2023/10/15 07:55:18;;;;;;;6.95;1.35;;;10.80;96.60;;;;;;5023269;28;20077;-64
2023/10/15 07:57:44;;;;;;;4.97;1.10;;;10.90;96.40;;;;;;5019562;28;20029;-64
2023/10/15 08:00:15;;;;;;;3.30;0.77;;;11.00;96.10;;;;;;5022570;28;20609;-64
2023/10/15 08:02:42;;;;;;;4.35;1.23;;;11.20;96.20;;;;;;5017467;28;20516;-64
2023/10/15 08:05:08;;;;;;;5.68;1.00;;;11.20;95.80;;;;;;5021659;28;20072;-64
2023/10/15 08:07:37;;;;;;;6.63;1.33;;;11.30;95.30;;;;;;5017724;28;20029;-64
2023/10/15 08:10:03;;;;;;;7.72;0.95;;;11.30;95.00;;;;;;5020554;28;20549;-64
2023/10/15 08:12:29;;;;;;;7.55;1.17;;;11.30;95.60;;;;;;5018024;28;20033;-65
2023/10/15 08:14:55;;;;;;;5.13;0.90;;;11.40;95.00;;;;;;5019414;28;20478;-64
2023/10/15 08:17:23;;;;;;;4.15;1.13;;;11.50;95.10;;;;;;5019446;28;20108;-64
2023/10/15 08:19:50;;;;;;;8.98;2.17;;;11.60;94.80;;;;;;5018779;28;20048;-64
2023/10/15 08:22:15;;;;;;;4.18;1.20;;;11.60;94.30;;;;;;5018809;28;20045;-64
2023/10/15 08:24:41;;;;;;;2.70;0.82;;;11.50;94.60;;;;;;5017287;28;20525;-64
2023/10/15 08:27:07;;;;;;;2.75;1.23;;;11.50;94.90;;;;;;5017733;28;20049;-64
2023/10/15 08:29:33;;;;;;;2.22;0.80;;;11.50;94.70;;;;;;5016774;28;20033;-69
2023/10/15 08:31:59;;;;;;;3.97;1.33;;;11.50;94.60;;;;;;5024494;28;20148;-69
2023/10/15 08:34:25;;;;;;;5.55;2.03;;;11.50;94.70;;;;;;5023390;28;20053;-67
2023/10/15 08:36:51;;;;;;;5.13;1.98;;;11.50;94.40;;;;;;5021546;28;20078;-69
2023/10/15 08:39:16;;;;;;;8.88;4.80;;;11.60;94.60;;;;;;5016221;28;20029;-69
2023/10/15 08:41:44;;;;;;;11.32;6.90;;;11.50;94.60;;;;;;5020851;28;20096;-69
2023/10/15 08:44:10;;;;;;;7.75;6.95;;;11.60;94.50;;;;;;5024159;28;20068;-67
2023/10/15 08:46:39;;;;;;;2.28;1.13;;;11.70;94.80;;;;;;5022656;28;20041;-67
2023/10/15 08:49:08;;;;;;;4.88;1.30;;;11.80;94.40;;;;;;5024414;28;20033;-69
2023/10/15 08:51:35;;;;;;;1.88;1.00;;;11.90;94.10;;;;;;5025146;28;20103;-69
2023/10/15 08:54:11;;;;;;;3.38;1.25;;;12.10;93.80;;;;;;5024404;28;20044;-69
2023/10/15 08:56:38;;;;;;;3.85;0.80;;;12.20;94.20;;;;;;5024407;28;20041;-69
2023/10/15 08:59:04;;;;;;;1.90;0.70;;;12.40;93.40;;;;;;5024454;28;20049;-69
2023/10/15 09:01:34;;;;;;;5.13;0.95;;;12.40;92.90;;;;;;5020344;28;20104;-69
2023/10/15 09:04:00;;;;;;;3.50;1.30;;;12.40;93.30;;;;;;5022795;28;20033;-69
2023/10/15 09:06:27;;;;;;;5.68;2.53;;;12.50;93.80;;;;;;5022613;28;20067;-69
2023/10/15 09:08:53;;;;;;;4.40;1.42;;;12.70;92.70;;;;;;5019483;28;20409;-69
2023/10/15 09:11:19;;;;;;;5.80;2.78;;;12.80;93.20;;;;;;5023987;28;20044;-66
2023/10/15 09:13:52;;;;;;;6.40;2.13;;;12.80;93.40;;;;;;5019888;28;20094;-68
2023/10/15 09:16:20;;;;;;;7.35;1.52;;;12.90;92.40;;;;;;5023365;28;20030;-68
2023/10/15 09:18:47;;;;;;;4.93;1.60;;;13.10;91.70;;;;;;5024313;28;20040;-68
2023/10/15 09:21:23;;;;;;;4.72;1.13;;;13.30;92.10;;;;;;5018962;28;20469;-68
2023/10/15 09:23:51;;;;;;;8.90;2.58;;;13.50;91.00;;;;;;5020530;28;20478;-68
2023/10/15 09:26:17;;;;;;;6.68;2.15;;;13.50;91.30;;;;;;5022068;28;20022;-66
2023/10/15 09:28:43;;;;;;;3.08;0.75;;;13.20;91.60;;;;;;5024416;28;20029;-67
2023/10/15 09:31:11;;;;;;;3.45;0.60;;;13.00;91.70;;;;;;5020124;28;20493;-69
2023/10/15 09:33:38;;;;;;;3.92;0.70;;;12.90;91.30;;;;;;5016075;28;20087;-69
2023/10/15 09:36:07;;;;;;;2.65;0.65;;;12.80;91.80;;;;;;5026356;28;20037;-68
2023/10/15 09:38:35;;;;;;;4.05;0.80;;;12.80;91.70;;;;;;5020350;28;20470;-68
2023/10/15 09:41:02;;;;;;;3.28;0.65;;;12.70;91.30;;;;;;5027559;28;20101;-68
2023/10/15 09:43:31;;;;;;;6.28;0.80;;;12.70;91.90;;;;;;5023969;28;20080;-73
2023/10/15 09:45:58;;;;;;;2.47;0.57;;;12.80;92.00;;;;;;5022803;28;20104;-68
2023/10/15 09:48:25;;;;;;;4.72;0.80;;;12.80;91.40;;;;;;5021772;28;20033;-69
2023/10/15 09:50:57;;;;;;;1.08;0.65;;;12.90;90.90;;;;;;5023993;28;20682;-68
2023/10/15 09:53:35;;;;;;;2.80;0.63;;;12.90;91.40;;;;;;5019680;28;20025;-69
2023/10/15 09:56:07;;;;;;;3.33;0.50;;;13.00;91.10;;;;;;5024504;28;20029;-68
2023/10/15 09:58:34;;;;;;;1.98;0.65;;;13.20;90.80;;;;;;5023567;28;20579;-68
2023/10/15 10:01:25;;;;;;;0.82;0.32;;;13.40;91.40;;;;;;5024577;28;20040;-69
2023/10/15 10:04:14;;;;;;;2.55;0.60;;;13.70;91.00;;;;;;5025194;28;20549;-68
2023/10/15 10:07:01;;;;;;;5.40;0.60;;;13.90;90.20;;;;;;5023127;28;20029;-68
2023/10/15 10:09:36;;;;;;;1.48;0.80;;;14.30;87.70;;;;;;5022947;28;20052;-68
2023/10/15 10:12:26;;;;;;;1.35;0.80;;;14.30;87.00;;;;;;5027171;28;20033;-68
2023/10/15 10:15:04;;;;;;;3.08;0.88;;;14.30;87.30;;;;;;5018728;28;20033;-68
2023/10/15 10:17:32;;;;;;;1.33;0.68;;;14.50;87.60;;;;;;5023676;28;20099;-68
2023/10/15 10:20:10;;;;;;;2.10;0.70;;;15.00;86.30;;;;;;5016618;28;20029;-68
2023/10/15 10:22:37;;;;;;;3.92;0.90;;;15.80;82.90;;;;;;5026710;28;20541;-68
2023/10/15 10:25:03;;;;;;;2.45;0.38;;;16.50;80.00;;;;;;5023020;28;20078;-68
2023/10/15 10:27:43;;;;;;;2.53;0.70;;;17.60;76.50;;;;;;5025694;28;20398;-68
2023/10/15 10:30:30;;;;;;;1.92;0.70;;;17.60;76.10;;;;;;5021237;28;20044;-68
2023/10/15 10:32:56;;;;;;;;;;;17.40;75.60;;;;;;5023155;28;20465;-68
2023/10/15 10:35:24;;;;;;;2.95;0.50;;;16.90;75.00;;;;;;5022445;28;19921;-69
2023/10/15 10:38:03;;;;;;;3.10;0.50;;;16.50;75.70;;;;;;5024490;28;20041;-68
2023/10/15 10:40:56;;;;;;;3.97;0.88;;;16.30;76.40;;;;;;5023098;28;20437;-68
2023/10/15 10:43:24;;;;;;;2.60;0.70;;;16.50;77.80;;;;;;5021472;28;20029;-68
2023/10/15 10:45:54;;;;;;;3.65;1.05;;;17.40;73.80;;;;;;5018183;28;20044;-69
2023/10/15 10:48:23;;;;;;;3.15;0.75;;;17.40;73.60;;;;;;5021821;28;20025;-68
2023/10/15 10:51:12;;;;;;;3.13;0.70;;;16.70;74.20;;;;;;5022115;28;20045;-68
2023/10/15 10:53:58;;;;;;;0.95;0.60;;;16.10;75.30;;;;;;5017656;28;20077;-68
2023/10/15 10:56:39;;;;;;;1.65;0.30;;;15.80;77.20;;;;;;5009844;28;20049;-69
2023/10/15 10:59:09;;;;;;;3.20;0.52;;;15.50;77.70;;;;;;5021275;28;20038;-68
2023/10/15 11:01:37;;;;;;;1.52;0.35;;;15.10;79.30;;;;;;5021988;28;20090;-69
2023/10/15 11:04:04;;;;;;;5.18;0.77;;;14.70;79.50;;;;;;5025436;28;20053;-68
2023/10/15 11:06:30;;;;;;;5.53;0.65;;;14.60;82.60;;;;;;5022074;28;20519;-68
2023/10/15 11:08:56;;;;;;;2.65;0.52;;;14.60;83.20;;;;;;5023330;28;20033;-68
2023/10/15 11:11:22;;;;;;;2.20;0.50;;;14.60;85.00;;;;;;5022248;28;20026;-68
2023/10/15 11:13:48;;;;;;;1.60;0.30;;;14.60;84.00;;;;;;5019136;28;20037;-68
2023/10/15 11:16:16;;;;;;;0.82;0.40;;;14.70;81.80;;;;;;5023648;28;20033;-69
2023/10/15 11:18:45;;;;;;;3.08;0.55;;;14.80;83.40;;;;;;5018619;28;20029;-69
2023/10/15 11:21:11;;;;;;;0.88;0.47;;;14.90;81.30;;;;;;5020922;28;20439;-68
2023/10/15 11:23:38;;;;;;;1.50;0.40;;;14.90;80.20;;;;;;5020159;28;20152;-69
2023/10/15 11:26:04;;;;;;;0.70;0.50;;;15.10;81.90;;;;;;5019577;28;20033;-69
2023/10/15 11:28:30;;;;;;;3.80;0.43;;;15.20;80.90;;;;;;5021667;28;20033;-69
2023/10/15 11:30:56;;;;;;;1.65;0.30;;;15.30;80.20;;;;;;5020479;28;20496;-69
2023/10/15 11:33:23;;;;;;;4.00;0.28;;;15.30;79.50;;;;;;5023013;28;20036;-69
2023/10/15 11:35:50;;;;;;;1.77;0.60;;;15.40;80.50;;;;;;5021371;28;20037;-69
2023/10/15 11:38:17;;;;;;;1.35;0.40;;;15.50;78.00;;;;;;5022651;28;20086;-69
2023/10/15 11:40:45;;;;;;;1.33;0.50;;;15.60;78.00;;;;;;5019530;28;20050;-69
2023/10/15 11:43:18;;;;;;;3.88;0.40;;;15.70;77.60;;;;;;5022637;28;20045;-67
2023/10/15 11:45:47;;;;;;;4.18;0.40;;;15.60;78.10;;;;;;5021797;28;20850;-67
2023/10/15 11:48:14;;;;;;;0.77;0.45;;;15.60;77.80;;;;;;5023350;28;20088;-67
2023/10/15 11:50:41;;;;;;;0.40;0.20;;;15.40;78.30;;;;;;5021527;28;20064;-68
2023/10/15 11:53:19;;;;;;;3.78;0.80;;;15.30;77.80;;;;;;5021638;28;20566;-68
2023/10/15 11:55:52;;;;;;;1.80;0.82;;;15.10;79.30;;;;;;5014120;28;20053;-68
2023/10/15 11:58:19;;;;;;;3.03;0.45;;;15.00;79.30;;;;;;5023523;28;20381;-68
2023/10/15 12:00:49;;;;;;;1.35;0.22;;;14.90;80.90;;;;;;5024765;28;20037;-68
2023/10/15 12:03:16;;;;;;;1.70;0.73;;;14.80;79.90;;;;;;5023122;28;20021;-69
2023/10/15 12:05:43;;;;;;;4.78;0.85;;;14.70;81.80;;;;;;5021353;28;20397;-69
2023/10/15 12:08:12;;;;;;;2.90;0.50;;;14.50;81.90;;;;;;5022642;28;20041;-68
2023/10/15 12:10:42;;;;;;;2.17;0.47;;;14.50;82.70;;;;;;5022721;28;20045;-68
2023/10/15 12:13:14;;;;;;;2.60;0.65;;;14.60;81.60;;;;;;5021135;28;20045;-68
2023/10/15 12:15:40;;;;;;;1.00;0.20;;;14.70;81.80;;;;;;5019323;28;20033;-69
2023/10/15 12:18:07;;;;;;;0.93;0.40;;;14.90;80.00;;;;;;5024093;28;20057;-68
2023/10/15 12:20:33;;;;;;;1.55;0.35;;;15.00;80.00;;;;;;5017526;28;20547;-69
2023/10/15 12:22:59;;;;;;;3.17;0.30;;;14.90;78.70;;;;;;5019095;28;20668;-69
2023/10/15 12:25:25;;;;;;;1.45;0.30;;;14.80;80.60;;;;;;5021372;28;20037;-69
2023/10/15 12:27:51;;;;;;;2.13;0.55;;;14.60;79.50;;;;;;5022886;28;20025;-69
2023/10/15 12:30:23;;;;;;;1.25;0.30;;;14.50;80.10;;;;;;5017154;28;20807;-69
2023/10/15 12:32:55;;;;;;;1.45;0.50;;;14.50;80.50;;;;;;5016040;28;20041;-69
2023/10/15 12:35:22;;;;;;;1.30;0.25;;;14.30;81.20;;;;;;5017417;28;20038;-69
2023/10/15 12:38:16;;;;;;;1.40;0.40;;;14.20;82.40;;;;;;5019581;28;20034;-68
2023/10/15 12:40:38;;;;;;;;;;;14.20;82.30;;;;;;5016472;28;20038;-68
2023/10/15 12:43:08;;;;;;;3.35;0.50;;;14.20;82.10;;;;;;5019599;28;19920;-68
2023/10/15 12:45:37;;;;;;;2.85;0.40;;;14.30;82.10;;;;;;5021832;28;20030;-69
2023/10/15 12:48:05;;;;;;;1.65;0.30;;;14.40;80.20;;;;;;5023128;28;20047;-68
2023/10/15 12:50:31;;;;;;;0.90;0.40;;;14.50;80.10;;;;;;5022679;28;20029;-68
2023/10/15 12:52:58;;;;;;;3.15;0.98;;;14.60;79.00;;;;;;5022994;28;20033;-69
2023/10/15 12:55:24;;;;;;;1.55;0.28;;;14.50;74.90;;;;;;5022397;28;20120;-69
2023/10/15 12:57:53;;;;;;;1.13;0.40;;;14.50;77.60;;;;;;5022936;28;20029;-69
2023/10/15 13:00:21;;;;;;;1.63;0.32;;;14.50;77.60;;;;;;5020436;28;20028;-69
2023/10/15 13:02:49;;;;;;;0.82;0.32;;;14.50;77.20;;;;;;5017455;28;20037;-69
2023/10/15 13:05:16;;;;;;;1.63;0.22;;;14.40;76.80;;;;;;5021482;28;20748;-68
2023/10/15 13:07:41;;;;;;;2.13;0.50;;;14.30;77.70;;;;;;5021955;28;20041;-68
2023/10/15 13:10:09;;;;;;;1.85;0.40;;;14.40;78.40;;;;;;5021616;28;20216;-68